Faust — SLKQ — position and weather

sailwx.info

Track history (hours):
 
Tides and Currents Weather Stations Pressure Air Temp Water Temp Dewpoint Dewpoint Depression Visibility Wind Speed Wind Dir Waves Ship Positions

Faust

Last reported at 2014-Nov-18 06:04 UTC. Time now 2014-Nov-23 05:49 UTC.
Position N 50°02' W 003°43'.

Length 227.8 m; beam 32.3 m; draft 9.5 m.

Type: Cargo ship. MMSI: 266260000.

Date/timePositionNaut miles runAvg speedWind from/ knotsBaromVisibWave heightAir tempDewpointWater temp
2014-Nov-18 06:04N 50°02' W 003°43'917.8
2014-Nov-18 05:33N 50°04' W 003°29'1717.3
2014-Nov-18 04:34N 50°09' W 003°04'1717.0
2014-Nov-18 03:33N 50°14' W 002°38'3717.3
2014-Nov-18 01:24N 50°25' W 001°42'1618.5
2014-Nov-18 00:34N 50°30' W 001°19'1616.1
2014-Nov-17 23:33N 50°39' W 000°58'1010.4
2014-Nov-17 22:33N 50°46' W 001°11'8 8.1
2014-Nov-17 21:33N 50°51' W 001°21'3 2.8
2014-Nov-17 20:33N 50°53' W 001°24'0 0.0
2014-Nov-17 19:32N 50°53' W 001°24'0 0.0
2014-Nov-17 18:32N 50°53' W 001°24'0 0.0
2014-Nov-17 17:32N 50°53' W 001°24'0 0.0
2014-Nov-17 16:32N 50°53' W 001°24'0 0.0
2014-Nov-17 15:32N 50°53' W 001°24'0 0.0
2014-Nov-17 14:32N 50°53' W 001°24'0 0.0
2014-Nov-17 13:32N 50°53' W 001°24'0 0.0
2014-Nov-17 12:32N 50°53' W 001°24'0 0.0
2014-Nov-17 11:32N 50°53' W 001°24'0 0.0
2014-Nov-17 10:32N 50°53' W 001°24'0 0.0
2014-Nov-17 09:32N 50°53' W 001°24'2 2.0
2014-Nov-17 08:33N 50°52' W 001°22'10 9.7
2014-Nov-17 07:33N 50°46' W 001°10'1212.0
2014-Nov-17 06:33N 50°39' W 000°54'1110.5
2014-Nov-17 05:32N 50°36' W 000°38'1715.2
2014-Nov-17 04:27N 50°33' W 000°12'1416.1
2014-Nov-17 03:33N 50°35' E 000°11'1716.8
2014-Nov-17 02:33N 50°38' E 000°36'1818.0
2014-Nov-17 01:33N 50°49' E 000°60'1918.8
2014-Nov-17 00:33N 51°01' E 001°22'1818.2
2014-Nov-16 23:33N 51°13' E 001°44'1716.6
2014-Nov-16 22:33N 51°25' E 002°02'1616.2
2014-Nov-16 21:34N 51°22' E 002°28'1813.9
2014-Nov-16 20:17N 51°23' E 002°56'912.6
2014-Nov-16 19:33N 51°22' E 003°11'3 2.6
2014-Nov-16 18:33N 51°20' E 003°13'1 1.3
2014-Nov-16 17:33N 51°19' E 003°14'0 0.0
2014-Nov-16 16:31N 51°19' E 003°14'0 0.0
2014-Nov-16 15:31N 51°19' E 003°14'0 0.0
2014-Nov-16 14:31N 51°19' E 003°14'0 0.0
2014-Nov-16 13:31N 51°19' E 003°14'0 0.0
2014-Nov-16 12:31N 51°19' E 003°14'0 0.0
2014-Nov-16 11:31N 51°19' E 003°14'0 0.0
2014-Nov-16 10:31N 51°19' E 003°14'0 0.0
2014-Nov-16 09:31N 51°19' E 003°14'0 0.0
2014-Nov-16 08:31N 51°19' E 003°14'0 0.0
2014-Nov-16 07:31N 51°19' E 003°14'0 0.0
2014-Nov-16 06:33N 51°19' E 003°14'0 0.4
2014-Nov-16 05:33N 51°19' E 003°13'1 0.8
2014-Nov-16 04:34N 51°20' E 003°13'1 0.7
2014-Nov-16 03:33N 51°21' E 003°12'9 8.6
2014-Nov-16 02:33N 51°23' E 002°59'11 9.5
2014-Nov-16 01:24N 51°25' E 002°42'1214.0
2014-Nov-16 00:31N 51°37' E 002°44'1514.6
2014-Nov-15 23:29N 51°52' E 002°38'39916.0
2014-Nov-14 22:33N 57°26' E 008°56'4117.1
2014-Nov-14 20:08N 57°44' E 010°06'1018.0
2014-Nov-14 19:33N 57°46' E 010°25'1717.0
2014-Nov-14 18:33N 57°48' E 010°57'1717.2
2014-Nov-14 17:33N 57°39' E 011°24'1212.1
2014-Nov-14 16:33N 57°40' E 011°47'3 3.1
2014-Nov-14 15:33N 57°41' E 011°52'0 0.0
2014-Nov-14 14:32N 57°41' E 011°52'0 0.0
2014-Nov-14 12:32N 57°41' E 011°52'0 0.0
2014-Nov-14 11:32N 57°41' E 011°52'0 0.0
2014-Nov-14 10:32N 57°41' E 011°52'0 0.0
2014-Nov-14 09:32N 57°41' E 011°52'0 0.0
2014-Nov-14 08:32N 57°41' E 011°52'0 0.0
2014-Nov-14 07:32N 57°41' E 011°52'0 0.0
2014-Nov-14 06:33N 57°41' E 011°52'0 0.0
2014-Nov-14 05:34N 57°41' E 011°52'0 0.0
2014-Nov-14 04:34N 57°41' E 011°52'0 0.2
2014-Nov-14 03:34N 57°41' E 011°52'8 8.5
2014-Nov-14 02:34N 57°36' E 011°39'1111.2
2014-Nov-14 01:33N 57°41' E 011°20'1111.3
2014-Nov-14 00:33N 57°46' E 011°01'1110.8
2014-Nov-13 23:33N 57°49' E 010°42'1110.8
2014-Nov-13 22:33N 57°47' E 010°22'3511.5
2014-Nov-13 19:33N 57°35' E 009°21'1713.7
2014-Nov-13 18:21N 57°25' E 008°57'4413.6
2014-Nov-13 15:06N 56°54' E 007°59'814.0
2014-Nov-13 14:33N 56°47' E 007°53'4914.2
2014-Nov-13 11:07N 56°01' E 007°22'814.3
2014-Nov-13 10:33N 55°54' E 007°17'1414.5
2014-Nov-13 09:34N 55°40' E 007°08'1514.5
2014-Nov-13 08:33N 55°26' E 007°01'1514.7
2014-Nov-13 07:33N 55°12' E 007°01'1514.8
2014-Nov-13 06:33N 54°57' E 007°04'1514.9
2014-Nov-13 05:33N 54°42' E 007°08'1515.2
2014-Nov-13 04:34N 54°28' E 007°16'1514.6
2014-Nov-13 03:33N 54°15' E 007°27'1414.5
2014-Nov-13 02:33N 54°02' E 007°38'1312.6
2014-Nov-13 01:33N 53°52' E 007°52'1312.8
2014-Nov-13 00:33N 53°46' E 008°11'1313.0
2014-Nov-12 23:34N 53°38' E 008°28'5 4.3
2014-Nov-12 22:31N 53°34' E 008°33'1 0.5
2014-Nov-12 21:31N 53°35' E 008°33'0 0.0
2014-Nov-12 20:31N 53°35' E 008°33'0 0.0
2014-Nov-12 19:31N 53°35' E 008°33'0 0.0
2014-Nov-12 18:31N 53°35' E 008°33'0 0.0
2014-Nov-12 17:31N 53°35' E 008°33'0 0.0
2014-Nov-12 16:31N 53°35' E 008°33'0 0.0
2014-Nov-12 15:31N 53°35' E 008°33'0 0.0
2014-Nov-12 14:31N 53°35' E 008°33'0 0.0
2014-Nov-12 13:31N 53°35' E 008°33'0 0.0
2014-Nov-12 12:31N 53°35' E 008°33'0 0.0
2014-Nov-12 11:31N 53°35' E 008°33'0 0.0
2014-Nov-12 10:31N 53°35' E 008°33'0 0.0
2014-Nov-12 09:31N 53°35' E 008°33'0 0.0
2014-Nov-12 08:31N 53°35' E 008°33'0 0.0
2014-Nov-12 07:31N 53°35' E 008°33'0 0.0
2014-Nov-12 06:31N 53°35' E 008°33'0 0.0
2014-Nov-12 05:31N 53°35' E 008°33'0 0.0
2014-Nov-12 04:31N 53°35' E 008°33'0 0.0
2014-Nov-12 03:31N 53°35' E 008°33'0 0.0
2014-Nov-12 02:31N 53°35' E 008°33'0 0.0
2014-Nov-12 01:31N 53°35' E 008°33'0 0.0
2014-Nov-12 00:31N 53°35' E 008°33'0 0.0
2014-Nov-11 23:31N 53°35' E 008°33'0 0.0
2014-Nov-11 22:31N 53°35' E 008°33'0 0.0
2014-Nov-11 21:31N 53°35' E 008°33'0 0.0
2014-Nov-11 20:31N 53°35' E 008°33'0 0.0
2014-Nov-11 19:31N 53°35' E 008°33'0 0.0
2014-Nov-11 18:31N 53°35' E 008°33'0 0.0
2014-Nov-11 17:31N 53°35' E 008°33'0 0.0
2014-Nov-11 16:31N 53°35' E 008°33'0 0.0
2014-Nov-11 15:28N 53°35' E 008°33'0 0.0
2014-Nov-11 14:31N 53°35' E 008°33'0 0.0
2014-Nov-11 13:31N 53°35' E 008°33'0 0.0
2014-Nov-11 12:31N 53°35' E 008°33'0 0.0
2014-Nov-11 11:31N 53°35' E 008°33'0 0.3
2014-Nov-11 10:33N 53°34' E 008°33'1 0.5
2014-Nov-11 09:33N 53°34' E 008°33'1010.3
2014-Nov-11 08:33N 53°42' E 008°21'1414.4
2014-Nov-11 07:33N 53°51' E 008°02'8 7.2
2014-Nov-11 06:31N 53°54' E 007°51'0 0.0
2014-Nov-11 05:31N 53°54' E 007°51'0 0.0
2014-Nov-11 04:31N 53°54' E 007°51'0 0.0
2014-Nov-11 03:31N 53°54' E 007°51'0 0.0
2014-Nov-11 02:25N 53°54' E 007°51'0 0.0
2014-Nov-11 01:25N 53°54' E 007°51'0 0.0
2014-Nov-11 00:31N 53°54' E 007°51'0 0.0
2014-Nov-10 23:31N 53°54' E 007°51'0 0.0
2014-Nov-10 22:25N 53°54' E 007°51'0 0.0
2014-Nov-10 21:31N 53°54' E 007°51'0 0.0
2014-Nov-10 20:25N 53°54' E 007°51'0 0.1
2014-Nov-10 19:31N 53°54' E 007°51'0 0.0
2014-Nov-10 18:28N 53°54' E 007°51'0 0.0
2014-Nov-10 17:31N 53°54' E 007°51'0 0.0
2014-Nov-10 16:31N 53°54' E 007°51'0 0.0
2014-Nov-10 15:31N 53°54' E 007°51'0 0.0
2014-Nov-10 14:19N 53°54' E 007°51'0 0.0
2014-Nov-10 13:28N 53°54' E 007°51'0 0.0
2014-Nov-10 09:27N 53°54' E 007°51'8 8.3
2014-Nov-10 08:32N 53°55' E 007°38'2114.6
2014-Nov-10 07:07N 53°51' E 007°04'1015.2
2014-Nov-10 06:28N 53°49' E 006°47'1414.8
2014-Nov-10 05:33N 53°45' E 006°25'1514.9
2014-Nov-10 04:33N 53°41' E 006°01'1514.8
2014-Nov-10 03:34N 53°37' E 005°37'1514.7
2014-Nov-10 02:34N 53°32' E 005°14'1514.8
2014-Nov-10 01:34N 53°26' E 004°51'1414.2
2014-Nov-10 00:34N 53°16' E 004°35'1515.0
2014-Nov-09 23:33N 53°03' E 004°23'1514.8
2014-Nov-09 22:34N 52°49' E 004°13'1514.8
2014-Nov-09 21:33N 52°39' E 003°55'1514.9
2014-Nov-09 20:33N 52°28' E 003°39'6215.6
2014-Nov-09 16:33N 51°36' E 002°43'1414.0
2014-Nov-09 15:33N 51°22' E 002°47'1313.5
2014-Nov-09 14:33N 51°24' E 003°09'4 4.3
2014-Nov-09 13:34N 51°20' E 003°13'1 1.3
2014-Nov-09 12:33N 51°19' E 003°13'0 0.0
2014-Nov-09 11:31N 51°19' E 003°13'0 0.0
2014-Nov-09 10:31N 51°19' E 003°13'0 0.0
2014-Nov-09 09:31N 51°19' E 003°13'0 0.0
2014-Nov-09 08:31N 51°19' E 003°13'0 0.0
2014-Nov-09 07:31N 51°19' E 003°13'0 0.0
2014-Nov-09 06:31N 51°19' E 003°13'0 0.0
2014-Nov-09 05:31N 51°19' E 003°13'0 0.0
2014-Nov-09 04:31N 51°19' E 003°13'0 0.0
2014-Nov-09 03:31N 51°19' E 003°13'0 0.0
2014-Nov-09 02:31N 51°19' E 003°13'0 0.0
2014-Nov-09 01:31N 51°19' E 003°13'0 0.0
2014-Nov-09 00:31N 51°19' E 003°13'0 0.0
2014-Nov-08 23:31N 51°19' E 003°13'0 0.0
2014-Nov-08 22:31N 51°19' E 003°13'0 0.0
2014-Nov-08 21:28N 51°19' E 003°13'0 0.4
2014-Nov-08 20:33N 51°19' E 003°14'0 0.0
2014-Nov-08 19:33N 51°19' E 003°14'0 0.0
2014-Nov-08 18:33N 51°19' E 003°14'0 0.0
2014-Nov-08 17:33N 51°19' E 003°14'0 0.0
2014-Nov-08 16:33N 51°19' E 003°14'0 0.0
2014-Nov-08 15:33N 51°19' E 003°14'0 0.0
2014-Nov-08 14:30N 51°19' E 003°14'0 0.0
2014-Nov-08 13:30N 51°19' E 003°14'0 0.0
2014-Nov-08 12:33N 51°19' E 003°14'0 0.0
2014-Nov-08 11:33N 51°19' E 003°14'0 0.0
2014-Nov-08 10:30N 51°19' E 003°14'0 0.0
2014-Nov-08 09:33N 51°19' E 003°14'0 0.0
2014-Nov-08 08:30N 51°19' E 003°14'0 0.0
2014-Nov-08 07:33N 51°19' E 003°14'0 0.0
2014-Nov-08 06:33N 51°19' E 003°14'  
Track history (hours):
 
Tides and Currents Weather Stations Pressure Air Temp Water Temp Dewpoint Dewpoint Depression Visibility Wind Speed Wind Dir Waves Ship Positions

Faust

Last reported at 2014-Nov-18 06:04 UTC. Time now 2014-Nov-23 05:49 UTC.
Position N 50°02' W 003°43'.

Length 227.8 m; beam 32.3 m; draft 9.5 m.

Type: Cargo ship. MMSI: 266260000.

Date/timePositionNaut miles runAvg speedWind from/ knotsBaromVisibWave heightAir tempDewpointWater temp
2014-Nov-18 06:04N 50°02' W 003°43'917.8
2014-Nov-18 05:33N 50°04' W 003°29'1717.3
2014-Nov-18 04:34N 50°09' W 003°04'1717.0
2014-Nov-18 03:33N 50°14' W 002°38'3717.3
2014-Nov-18 01:24N 50°25' W 001°42'1618.5
2014-Nov-18 00:34N 50°30' W 001°19'1616.1
2014-Nov-17 23:33N 50°39' W 000°58'1010.4
2014-Nov-17 22:33N 50°46' W 001°11'8 8.1
2014-Nov-17 21:33N 50°51' W 001°21'3 2.8
2014-Nov-17 20:33N 50°53' W 001°24'0 0.0
2014-Nov-17 19:32N 50°53' W 001°24'0 0.0
2014-Nov-17 18:32N 50°53' W 001°24'0 0.0
2014-Nov-17 17:32N 50°53' W 001°24'0 0.0
2014-Nov-17 16:32N 50°53' W 001°24'0 0.0
2014-Nov-17 15:32N 50°53' W 001°24'0 0.0
2014-Nov-17 14:32N 50°53' W 001°24'0 0.0
2014-Nov-17 13:32N 50°53' W 001°24'0 0.0
2014-Nov-17 12:32N 50°53' W 001°24'0 0.0
2014-Nov-17 11:32N 50°53' W 001°24'0 0.0
2014-Nov-17 10:32N 50°53' W 001°24'0 0.0
2014-Nov-17 09:32N 50°53' W 001°24'2 2.0
2014-Nov-17 08:33N 50°52' W 001°22'10 9.7
2014-Nov-17 07:33N 50°46' W 001°10'1212.0
2014-Nov-17 06:33N 50°39' W 000°54'1110.5
2014-Nov-17 05:32N 50°36' W 000°38'1715.2
2014-Nov-17 04:27N 50°33' W 000°12'1416.1
2014-Nov-17 03:33N 50°35' E 000°11'1716.8
2014-Nov-17 02:33N 50°38' E 000°36'1818.0
2014-Nov-17 01:33N 50°49' E 000°60'1918.8
2014-Nov-17 00:33N 51°01' E 001°22'1818.2
2014-Nov-16 23:33N 51°13' E 001°44'1716.6
2014-Nov-16 22:33N 51°25' E 002°02'1616.2
2014-Nov-16 21:34N 51°22' E 002°28'1813.9
2014-Nov-16 20:17N 51°23' E 002°56'912.6
2014-Nov-16 19:33N 51°22' E 003°11'3 2.6
2014-Nov-16 18:33N 51°20' E 003°13'1 1.3
2014-Nov-16 17:33N 51°19' E 003°14'0 0.0
2014-Nov-16 16:31N 51°19' E 003°14'0 0.0
2014-Nov-16 15:31N 51°19' E 003°14'0 0.0
2014-Nov-16 14:31N 51°19' E 003°14'0 0.0
2014-Nov-16 13:31N 51°19' E 003°14'0 0.0
2014-Nov-16 12:31N 51°19' E 003°14'0 0.0
2014-Nov-16 11:31N 51°19' E 003°14'0 0.0
2014-Nov-16 10:31N 51°19' E 003°14'0 0.0
2014-Nov-16 09:31N 51°19' E 003°14'0 0.0
2014-Nov-16 08:31N 51°19' E 003°14'0 0.0
2014-Nov-16 07:31N 51°19' E 003°14'0 0.0
2014-Nov-16 06:33N 51°19' E 003°14'0 0.4
2014-Nov-16 05:33N 51°19' E 003°13'1 0.8
2014-Nov-16 04:34N 51°20' E 003°13'1 0.7
2014-Nov-16 03:33N 51°21' E 003°12'9 8.6
2014-Nov-16 02:33N 51°23' E 002°59'11 9.5
2014-Nov-16 01:24N 51°25' E 002°42'1214.0
2014-Nov-16 00:31N 51°37' E 002°44'1514.6
2014-Nov-15 23:29N 51°52' E 002°38'39916.0
2014-Nov-14 22:33N 57°26' E 008°56'4117.1
2014-Nov-14 20:08N 57°44' E 010°06'1018.0
2014-Nov-14 19:33N 57°46' E 010°25'1717.0
2014-Nov-14 18:33N 57°48' E 010°57'1717.2
2014-Nov-14 17:33N 57°39' E 011°24'1212.1
2014-Nov-14 16:33N 57°40' E 011°47'3 3.1
2014-Nov-14 15:33N 57°41' E 011°52'0 0.0
2014-Nov-14 14:32N 57°41' E 011°52'0 0.0
2014-Nov-14 12:32N 57°41' E 011°52'0 0.0
2014-Nov-14 11:32N 57°41' E 011°52'0 0.0
2014-Nov-14 10:32N 57°41' E 011°52'0 0.0
2014-Nov-14 09:32N 57°41' E 011°52'0 0.0
2014-Nov-14 08:32N 57°41' E 011°52'0 0.0
2014-Nov-14 07:32N 57°41' E 011°52'0 0.0
2014-Nov-14 06:33N 57°41' E 011°52'0 0.0
2014-Nov-14 05:34N 57°41' E 011°52'0 0.0
2014-Nov-14 04:34N 57°41' E 011°52'0 0.2
2014-Nov-14 03:34N 57°41' E 011°52'8 8.5
2014-Nov-14 02:34N 57°36' E 011°39'1111.2
2014-Nov-14 01:33N 57°41' E 011°20'1111.3
2014-Nov-14 00:33N 57°46' E 011°01'1110.8
2014-Nov-13 23:33N 57°49' E 010°42'1110.8
2014-Nov-13 22:33N 57°47' E 010°22'3511.5
2014-Nov-13 19:33N 57°35' E 009°21'1713.7
2014-Nov-13 18:21N 57°25' E 008°57'4413.6
2014-Nov-13 15:06N 56°54' E 007°59'814.0
2014-Nov-13 14:33N 56°47' E 007°53'4914.2
2014-Nov-13 11:07N 56°01' E 007°22'814.3
2014-Nov-13 10:33N 55°54' E 007°17'1414.5
2014-Nov-13 09:34N 55°40' E 007°08'1514.5
2014-Nov-13 08:33N 55°26' E 007°01'1514.7
2014-Nov-13 07:33N 55°12' E 007°01'1514.8
2014-Nov-13 06:33N 54°57' E 007°04'1514.9
2014-Nov-13 05:33N 54°42' E 007°08'1515.2
2014-Nov-13 04:34N 54°28' E 007°16'1514.6
2014-Nov-13 03:33N 54°15' E 007°27'1414.5
2014-Nov-13 02:33N 54°02' E 007°38'1312.6
2014-Nov-13 01:33N 53°52' E 007°52'1312.8
2014-Nov-13 00:33N 53°46' E 008°11'1313.0
2014-Nov-12 23:34N 53°38' E 008°28'5 4.3
2014-Nov-12 22:31N 53°34' E 008°33'1 0.5
2014-Nov-12 21:31N 53°35' E 008°33'0 0.0
2014-Nov-12 20:31N 53°35' E 008°33'0 0.0
2014-Nov-12 19:31N 53°35' E 008°33'0 0.0
2014-Nov-12 18:31N 53°35' E 008°33'0 0.0
2014-Nov-12 17:31N 53°35' E 008°33'0 0.0
2014-Nov-12 16:31N 53°35' E 008°33'0 0.0
2014-Nov-12 15:31N 53°35' E 008°33'0 0.0
2014-Nov-12 14:31N 53°35' E 008°33'0 0.0
2014-Nov-12 13:31N 53°35' E 008°33'0 0.0
2014-Nov-12 12:31N 53°35' E 008°33'0 0.0
2014-Nov-12 11:31N 53°35' E 008°33'0 0.0
2014-Nov-12 10:31N 53°35' E 008°33'0 0.0
2014-Nov-12 09:31N 53°35' E 008°33'0 0.0
2014-Nov-12 08:31N 53°35' E 008°33'0 0.0
2014-Nov-12 07:31N 53°35' E 008°33'0 0.0
2014-Nov-12 06:31N 53°35' E 008°33'0 0.0
2014-Nov-12 05:31N 53°35' E 008°33'0 0.0
2014-Nov-12 04:31N 53°35' E 008°33'0 0.0
2014-Nov-12 03:31N 53°35' E 008°33'0 0.0
2014-Nov-12 02:31N 53°35' E 008°33'0 0.0
2014-Nov-12 01:31N 53°35' E 008°33'0 0.0
2014-Nov-12 00:31N 53°35' E 008°33'0 0.0
2014-Nov-11 23:31N 53°35' E 008°33'0 0.0
2014-Nov-11 22:31N 53°35' E 008°33'0 0.0
2014-Nov-11 21:31N 53°35' E 008°33'0 0.0
2014-Nov-11 20:31N 53°35' E 008°33'0 0.0
2014-Nov-11 19:31N 53°35' E 008°33'0 0.0
2014-Nov-11 18:31N 53°35' E 008°33'0 0.0
2014-Nov-11 17:31N 53°35' E 008°33'0 0.0
2014-Nov-11 16:31N 53°35' E 008°33'0 0.0
2014-Nov-11 15:28N 53°35' E 008°33'0 0.0
2014-Nov-11 14:31N 53°35' E 008°33'0 0.0
2014-Nov-11 13:31N 53°35' E 008°33'0 0.0
2014-Nov-11 12:31N 53°35' E 008°33'0 0.0
2014-Nov-11 11:31N 53°35' E 008°33'0 0.3
2014-Nov-11 10:33N 53°34' E 008°33'1 0.5
2014-Nov-11 09:33N 53°34' E 008°33'1010.3
2014-Nov-11 08:33N 53°42' E 008°21'1414.4
2014-Nov-11 07:33N 53°51' E 008°02'8 7.2
2014-Nov-11 06:31N 53°54' E 007°51'0 0.0
2014-Nov-11 05:31N 53°54' E 007°51'0 0.0
2014-Nov-11 04:31N 53°54' E 007°51'0 0.0
2014-Nov-11 03:31N 53°54' E 007°51'0 0.0
2014-Nov-11 02:25N 53°54' E 007°51'0 0.0
2014-Nov-11 01:25N 53°54' E 007°51'0 0.0
2014-Nov-11 00:31N 53°54' E 007°51'0 0.0
2014-Nov-10 23:31N 53°54' E 007°51'0 0.0
2014-Nov-10 22:25N 53°54' E 007°51'0 0.0
2014-Nov-10 21:31N 53°54' E 007°51'0 0.0
2014-Nov-10 20:25N 53°54' E 007°51'0 0.1
2014-Nov-10 19:31N 53°54' E 007°51'0 0.0
2014-Nov-10 18:28N 53°54' E 007°51'0 0.0
2014-Nov-10 17:31N 53°54' E 007°51'0 0.0
2014-Nov-10 16:31N 53°54' E 007°51'0 0.0
2014-Nov-10 15:31N 53°54' E 007°51'0 0.0
2014-Nov-10 14:19N 53°54' E 007°51'0 0.0
2014-Nov-10 13:28N 53°54' E 007°51'0 0.0
2014-Nov-10 09:27N 53°54' E 007°51'8 8.3
2014-Nov-10 08:32N 53°55' E 007°38'2114.6
2014-Nov-10 07:07N 53°51' E 007°04'1015.2
2014-Nov-10 06:28N 53°49' E 006°47'1414.8
2014-Nov-10 05:33N 53°45' E 006°25'1514.9
2014-Nov-10 04:33N 53°41' E 006°01'1514.8
2014-Nov-10 03:34N 53°37' E 005°37'1514.7
2014-Nov-10 02:34N 53°32' E 005°14'1514.8
2014-Nov-10 01:34N 53°26' E 004°51'1414.2
2014-Nov-10 00:34N 53°16' E 004°35'1515.0
2014-Nov-09 23:33N 53°03' E 004°23'1514.8
2014-Nov-09 22:34N 52°49' E 004°13'1514.8
2014-Nov-09 21:33N 52°39' E 003°55'1514.9
2014-Nov-09 20:33N 52°28' E 003°39'6215.6
2014-Nov-09 16:33N 51°36' E 002°43'1414.0
2014-Nov-09 15:33N 51°22' E 002°47'1313.5
2014-Nov-09 14:33N 51°24' E 003°09'4 4.3
2014-Nov-09 13:34N 51°20' E 003°13'1 1.3
2014-Nov-09 12:33N 51°19' E 003°13'0 0.0
2014-Nov-09 11:31N 51°19' E 003°13'0 0.0
2014-Nov-09 10:31N 51°19' E 003°13'0 0.0
2014-Nov-09 09:31N 51°19' E 003°13'0 0.0
2014-Nov-09 08:31N 51°19' E 003°13'0 0.0
2014-Nov-09 07:31N 51°19' E 003°13'0 0.0
2014-Nov-09 06:31N 51°19' E 003°13'0 0.0
2014-Nov-09 05:31N 51°19' E 003°13'0 0.0
2014-Nov-09 04:31N 51°19' E 003°13'0 0.0
2014-Nov-09 03:31N 51°19' E 003°13'0 0.0
2014-Nov-09 02:31N 51°19' E 003°13'0 0.0
2014-Nov-09 01:31N 51°19' E 003°13'0 0.0
2014-Nov-09 00:31N 51°19' E 003°13'0 0.0
2014-Nov-08 23:31N 51°19' E 003°13'0 0.0
2014-Nov-08 22:31N 51°19' E 003°13'0 0.0
2014-Nov-08 21:28N 51°19' E 003°13'0 0.4
2014-Nov-08 20:33N 51°19' E 003°14'0 0.0
2014-Nov-08 19:33N 51°19' E 003°14'0 0.0
2014-Nov-08 18:33N 51°19' E 003°14'0 0.0
2014-Nov-08 17:33N 51°19' E 003°14'0 0.0
2014-Nov-08 16:33N 51°19' E 003°14'0 0.0
2014-Nov-08 15:33N 51°19' E 003°14'0 0.0
2014-Nov-08 14:30N 51°19' E 003°14'0 0.0
2014-Nov-08 13:30N 51°19' E 003°14'0 0.0
2014-Nov-08 12:33N 51°19' E 003°14'0 0.0
2014-Nov-08 11:33N 51°19' E 003°14'0 0.0
2014-Nov-08 10:30N 51°19' E 003°14'0 0.0
2014-Nov-08 09:33N 51°19' E 003°14'0 0.0
2014-Nov-08 08:30N 51°19' E 003°14'0 0.0
2014-Nov-08 07:33N 51°19' E 003°14'0 0.0
2014-Nov-08 06:33N 51°19' E 003°14'  

Dump ship's entire track history